Berwick, Iowa
Current Conditions -  °F | °C
As of 1:55 AM on Friday 31 Oct 2014 (Local Time) from KIKV Reporting Station
Overcast Overcast  
Wind Chill: 29°   Ceiling: 3600
Heat Index: 39°   Visibility: 10mi
Dew Point: 25°   Wind: 23mph
Humidity: 56%   Direction: 340°NNW
Pressure: 30.31"   Gusts: 33mph
Location:  41.66°N, 93.55°W
Report Text: KIKV 310655Z AUTO 34020G29KT 10SM OVC036 04/M04 A3031 RMK AO2
Loading
Personal Weather Stations






























Interactive Weather Map
Tropical Storm Tracking
New forecast layout! Learn more

10-Day Weather Forecast

Advertisements
Track Severe Weather on mobile